sensor_id;sensor_type;location;lat;lon;timestamp;temperature;humidity
22249;DHT22;67538;52.180;5.646;2023-04-29T00:01:42;9.70;99.90
22249;DHT22;67538;52.180;5.646;2023-04-29T00:04:09;9.70;99.90
22249;DHT22;67538;52.180;5.646;2023-04-29T00:06:37;9.70;99.90
22249;DHT22;67538;52.180;5.646;2023-04-29T00:09:05;9.70;99.90
22249;DHT22;67538;52.180;5.646;2023-04-29T00:11:32;9.70;99.90
22249;DHT22;67538;52.180;5.646;2023-04-29T00:14:00;9.70;99.90
22249;DHT22;67538;52.180;5.646;2023-04-29T00:16:27;9.70;99.90
22249;DHT22;67538;52.180;5.646;2023-04-29T00:18:54;9.70;99.90
22249;DHT22;67538;52.180;5.646;2023-04-29T00:21:22;9.60;99.90
22249;DHT22;67538;52.180;5.646;2023-04-29T00:23:50;9.70;99.90
22249;DHT22;67538;52.180;5.646;2023-04-29T00:26:17;9.60;99.90
22249;DHT22;67538;52.180;5.646;2023-04-29T00:28:44;9.70;99.90
22249;DHT22;67538;52.180;5.646;2023-04-29T00:31:11;9.60;99.90
22249;DHT22;67538;52.180;5.646;2023-04-29T00:33:39;9.60;99.90
22249;DHT22;67538;52.180;5.646;2023-04-29T00:36:06;9.60;99.90
22249;DHT22;67538;52.180;5.646;2023-04-29T00:38:34;9.60;99.90
22249;DHT22;67538;52.180;5.646;2023-04-29T00:41:03;9.60;99.90
22249;DHT22;67538;52.180;5.646;2023-04-29T00:43:30;9.60;99.90
22249;DHT22;67538;52.180;5.646;2023-04-29T00:45:57;9.60;99.90
22249;DHT22;67538;52.180;5.646;2023-04-29T00:48:24;9.60;99.90
22249;DHT22;67538;52.180;5.646;2023-04-29T00:50:52;9.60;99.90
22249;DHT22;67538;52.180;5.646;2023-04-29T00:53:19;9.60;99.90
22249;DHT22;67538;52.180;5.646;2023-04-29T00:55:47;9.50;99.90
22249;DHT22;67538;52.180;5.646;2023-04-29T00:58:18;9.60;99.90
22249;DHT22;67538;52.180;5.646;2023-04-29T01:00:45;9.50;99.90
22249;DHT22;67538;52.180;5.646;2023-04-29T01:03:14;9.50;99.90
22249;DHT22;67538;52.180;5.646;2023-04-29T01:05:43;9.50;99.90
22249;DHT22;67538;52.180;5.646;2023-04-29T01:08:23;9.50;99.90
22249;DHT22;67538;52.180;5.646;2023-04-29T01:11:03;9.60;99.90
22249;DHT22;67538;52.180;5.646;2023-04-29T01:13:42;9.50;99.90
22249;DHT22;67538;52.180;5.646;2023-04-29T01:16:17;9.60;99.90
22249;DHT22;67538;52.180;5.646;2023-04-29T01:18:51;9.50;99.90
22249;DHT22;67538;52.180;5.646;2023-04-29T01:21:20;9.50;99.90
22249;DHT22;67538;52.180;5.646;2023-04-29T01:23:49;9.50;99.90
22249;DHT22;67538;52.180;5.646;2023-04-29T01:26:21;9.50;99.90
22249;DHT22;67538;52.180;5.646;2023-04-29T01:28:53;9.50;99.90
22249;DHT22;67538;52.180;5.646;2023-04-29T01:31:29;9.50;99.90
22249;DHT22;67538;52.180;5.646;2023-04-29T01:34:07;9.50;99.90
22249;DHT22;67538;52.180;5.646;2023-04-29T01:36:41;9.50;99.90
22249;DHT22;67538;52.180;5.646;2023-04-29T01:39:19;9.50;99.90
22249;DHT22;67538;52.180;5.646;2023-04-29T01:41:56;9.50;99.90
22249;DHT22;67538;52.180;5.646;2023-04-29T01:44:28;9.50;99.90
22249;DHT22;67538;52.180;5.646;2023-04-29T01:46:56;9.50;99.90
22249;DHT22;67538;52.180;5.646;2023-04-29T01:49:24;9.50;99.90
22249;DHT22;67538;52.180;5.646;2023-04-29T01:51:51;9.50;99.90
22249;DHT22;67538;52.180;5.646;2023-04-29T01:54:20;9.50;99.90
22249;DHT22;67538;52.180;5.646;2023-04-29T01:56:47;9.50;99.90
22249;DHT22;67538;52.180;5.646;2023-04-29T01:59:16;9.50;99.90
22249;DHT22;67538;52.180;5.646;2023-04-29T02:01:43;9.50;99.90
22249;DHT22;67538;52.180;5.646;2023-04-29T02:04:10;9.50;99.90
22249;DHT22;67538;52.180;5.646;2023-04-29T02:06:37;9.50;99.90
22249;DHT22;67538;52.180;5.646;2023-04-29T02:09:04;9.50;99.90
22249;DHT22;67538;52.180;5.646;2023-04-29T02:11:33;9.50;99.90
22249;DHT22;67538;52.180;5.646;2023-04-29T02:14:00;9.50;99.90
22249;DHT22;67538;52.180;5.646;2023-04-29T02:16:27;9.50;99.90
22249;DHT22;67538;52.180;5.646;2023-04-29T02:18:54;9.50;99.90
22249;DHT22;67538;52.180;5.646;2023-04-29T02:21:21;9.50;99.90
22249;DHT22;67538;52.180;5.646;2023-04-29T02:23:48;9.50;99.90
22249;DHT22;67538;52.180;5.646;2023-04-29T02:26:16;9.50;99.90
22249;DHT22;67538;52.180;5.646;2023-04-29T02:28:44;9.50;99.90
22249;DHT22;67538;52.180;5.646;2023-04-29T02:31:11;9.50;99.90
22249;DHT22;67538;52.180;5.646;2023-04-29T02:33:38;9.50;99.90
22249;DHT22;67538;52.180;5.646;2023-04-29T02:36:06;9.50;99.90
22249;DHT22;67538;52.180;5.646;2023-04-29T02:38:33;9.50;99.90
22249;DHT22;67538;52.180;5.646;2023-04-29T02:41:00;9.50;99.90
22249;DHT22;67538;52.180;5.646;2023-04-29T02:43:27;9.50;99.90
22249;DHT22;67538;52.180;5.646;2023-04-29T02:45:57;9.50;99.90
22249;DHT22;67538;52.180;5.646;2023-04-29T02:48:24;9.50;99.90
22249;DHT22;67538;52.180;5.646;2023-04-29T02:50:51;9.50;99.90
22249;DHT22;67538;52.180;5.646;2023-04-29T02:53:18;9.50;99.90
22249;DHT22;67538;52.180;5.646;2023-04-29T02:55:46;9.50;99.90
22249;DHT22;67538;52.180;5.646;2023-04-29T02:58:13;9.50;99.90
22249;DHT22;67538;52.180;5.646;2023-04-29T03:00:40;9.50;99.90
22249;DHT22;67538;52.180;5.646;2023-04-29T03:03:09;9.50;99.90
22249;DHT22;67538;52.180;5.646;2023-04-29T03:05:36;9.50;99.90
22249;DHT22;67538;52.180;5.646;2023-04-29T03:08:03;9.50;99.90
22249;DHT22;67538;52.180;5.646;2023-04-29T03:10:30;9.50;99.90
22249;DHT22;67538;52.180;5.646;2023-04-29T03:12:57;9.50;99.90
22249;DHT22;67538;52.180;5.646;2023-04-29T03:15:24;9.50;99.90
22249;DHT22;67538;52.180;5.646;2023-04-29T03:17:51;9.50;99.90
22249;DHT22;67538;52.180;5.646;2023-04-29T03:20:20;9.50;99.90
22249;DHT22;67538;52.180;5.646;2023-04-29T03:22:47;9.50;99.90
22249;DHT22;67538;52.180;5.646;2023-04-29T03:25:14;9.40;99.90
22249;DHT22;67538;52.180;5.646;2023-04-29T03:27:41;9.50;99.90
22249;DHT22;67538;52.180;5.646;2023-04-29T03:30:10;9.50;99.90
22249;DHT22;67538;52.180;5.646;2023-04-29T03:32:37;9.50;99.90
22249;DHT22;67538;52.180;5.646;2023-04-29T03:35:04;9.50;99.90
22249;DHT22;67538;52.180;5.646;2023-04-29T03:37:33;9.50;99.90
22249;DHT22;67538;52.180;5.646;2023-04-29T03:40:00;9.40;99.90
22249;DHT22;67538;52.180;5.646;2023-04-29T03:42:27;9.40;99.90
22249;DHT22;67538;52.180;5.646;2023-04-29T03:44:54;9.50;99.90
22249;DHT22;67538;52.180;5.646;2023-04-29T03:47:21;9.40;99.90
22249;DHT22;67538;52.180;5.646;2023-04-29T03:49:48;9.40;99.90
22249;DHT22;67538;52.180;5.646;2023-04-29T03:52:15;9.40;99.90
22249;DHT22;67538;52.180;5.646;2023-04-29T03:54:44;9.40;99.90
22249;DHT22;67538;52.180;5.646;2023-04-29T03:57:11;9.50;99.90
22249;DHT22;67538;52.180;5.646;2023-04-29T03:59:38;9.40;99.90
22249;DHT22;67538;52.180;5.646;2023-04-29T04:02:05;9.40;99.90
22249;DHT22;67538;52.180;5.646;2023-04-29T04:04:33;9.40;99.90
22249;DHT22;67538;52.180;5.646;2023-04-29T04:07:00;9.40;99.90
22249;DHT22;67538;52.180;5.646;2023-04-29T04:09:28;9.40;99.90
22249;DHT22;67538;52.180;5.646;2023-04-29T04:11:56;9.40;99.90
22249;DHT22;67538;52.180;5.646;2023-04-29T04:14:23;9.40;99.90
22249;DHT22;67538;52.180;5.646;2023-04-29T04:16:50;9.40;99.90
22249;DHT22;67538;52.180;5.646;2023-04-29T04:19:17;9.40;99.90
22249;DHT22;67538;52.180;5.646;2023-04-29T04:21:44;9.40;99.90
22249;DHT22;67538;52.180;5.646;2023-04-29T04:24:11;9.40;99.90
22249;DHT22;67538;52.180;5.646;2023-04-29T04:26:38;9.40;99.90
22249;DHT22;67538;52.180;5.646;2023-04-29T04:29:07;9.40;99.90
22249;DHT22;67538;52.180;5.646;2023-04-29T04:31:34;9.30;99.90
22249;DHT22;67538;52.180;5.646;2023-04-29T04:34:01;9.30;99.90
22249;DHT22;67538;52.180;5.646;2023-04-29T04:36:28;9.40;99.90
22249;DHT22;67538;52.180;5.646;2023-04-29T04:38:55;9.40;99.90
22249;DHT22;67538;52.180;5.646;2023-04-29T04:41:22;9.40;99.90
22249;DHT22;67538;52.180;5.646;2023-04-29T04:43:49;9.40;99.90
22249;DHT22;67538;52.180;5.646;2023-04-29T04:46:17;9.40;99.90
22249;DHT22;67538;52.180;5.646;2023-04-29T04:48:44;9.40;99.90
22249;DHT22;67538;52.180;5.646;2023-04-29T04:51:12;9.40;99.90
22249;DHT22;67538;52.180;5.646;2023-04-29T04:53:40;9.40;99.90
22249;DHT22;67538;52.180;5.646;2023-04-29T04:56:07;9.40;99.90
22249;DHT22;67538;52.180;5.646;2023-04-29T04:58:34;9.40;99.90
22249;DHT22;67538;52.180;5.646;2023-04-29T05:01:01;9.40;99.90
22249;DHT22;67538;52.180;5.646;2023-04-29T05:03:30;9.40;99.90
22249;DHT22;67538;52.180;5.646;2023-04-29T05:05:57;9.50;99.90
22249;DHT22;67538;52.180;5.646;2023-04-29T05:08:25;9.50;99.90
22249;DHT22;67538;52.180;5.646;2023-04-29T05:10:52;9.50;99.90
22249;DHT22;67538;52.180;5.646;2023-04-29T05:13:19;9.50;99.90
22249;DHT22;67538;52.180;5.646;2023-04-29T05:15:46;9.50;99.90
22249;DHT22;67538;52.180;5.646;2023-04-29T05:18:14;9.50;99.90
22249;DHT22;67538;52.180;5.646;2023-04-29T05:20:42;9.60;99.90
22249;DHT22;67538;52.180;5.646;2023-04-29T05:23:09;9.60;99.90
22249;DHT22;67538;52.180;5.646;2023-04-29T05:25:36;9.70;99.90
22249;DHT22;67538;52.180;5.646;2023-04-29T05:28:04;9.70;99.90
22249;DHT22;67538;52.180;5.646;2023-04-29T05:30:31;9.80;99.90
22249;DHT22;67538;52.180;5.646;2023-04-29T05:32:58;9.80;99.90
22249;DHT22;67538;52.180;5.646;2023-04-29T05:35:25;9.80;99.90
22249;DHT22;67538;52.180;5.646;2023-04-29T05:37:53;9.80;99.90
22249;DHT22;67538;52.180;5.646;2023-04-29T05:40:20;9.90;99.90
22249;DHT22;67538;52.180;5.646;2023-04-29T05:42:48;9.90;99.90
22249;DHT22;67538;52.180;5.646;2023-04-29T05:45:16;9.90;99.90
22249;DHT22;67538;52.180;5.646;2023-04-29T05:47:43;10.00;99.90
22249;DHT22;67538;52.180;5.646;2023-04-29T05:50:10;10.10;99.90
22249;DHT22;67538;52.180;5.646;2023-04-29T05:52:37;10.10;99.90
22249;DHT22;67538;52.180;5.646;2023-04-29T05:55:06;10.10;99.90
22249;DHT22;67538;52.180;5.646;2023-04-29T05:57:33;10.20;99.90
22249;DHT22;67538;52.180;5.646;2023-04-29T06:00:00;10.20;99.90
22249;DHT22;67538;52.180;5.646;2023-04-29T06:02:29;10.20;99.90
22249;DHT22;67538;52.180;5.646;2023-04-29T06:04:56;10.30;99.90
22249;DHT22;67538;52.180;5.646;2023-04-29T06:07:23;10.30;99.90
22249;DHT22;67538;52.180;5.646;2023-04-29T06:09:51;10.40;99.90
22249;DHT22;67538;52.180;5.646;2023-04-29T06:12:20;10.40;99.90
22249;DHT22;67538;52.180;5.646;2023-04-29T06:14:47;10.40;99.90
22249;DHT22;67538;52.180;5.646;2023-04-29T06:17:15;10.60;99.90
22249;DHT22;67538;52.180;5.646;2023-04-29T06:19:42;10.80;99.90
22249;DHT22;67538;52.180;5.646;2023-04-29T06:22:09;11.00;99.90
22249;DHT22;67538;52.180;5.646;2023-04-29T06:24:36;11.00;99.90
22249;DHT22;67538;52.180;5.646;2023-04-29T06:27:03;11.00;99.90
22249;DHT22;67538;52.180;5.646;2023-04-29T06:29:31;10.90;99.90
22249;DHT22;67538;52.180;5.646;2023-04-29T06:31:58;10.90;99.90
22249;DHT22;67538;52.180;5.646;2023-04-29T06:34:25;10.90;99.90
22249;DHT22;67538;52.180;5.646;2023-04-29T06:36:53;10.90;99.90
22249;DHT22;67538;52.180;5.646;2023-04-29T06:39:20;11.00;99.90
22249;DHT22;67538;52.180;5.646;2023-04-29T06:41:47;11.00;99.90
22249;DHT22;67538;52.180;5.646;2023-04-29T06:44:14;11.10;99.90
22249;DHT22;67538;52.180;5.646;2023-04-29T06:46:42;11.10;99.90
22249;DHT22;67538;52.180;5.646;2023-04-29T06:49:09;11.20;99.90
22249;DHT22;67538;52.180;5.646;2023-04-29T06:51:36;11.30;99.90
22249;DHT22;67538;52.180;5.646;2023-04-29T06:54:03;11.40;99.90
22249;DHT22;67538;52.180;5.646;2023-04-29T06:56:31;11.40;99.90
22249;DHT22;67538;52.180;5.646;2023-04-29T06:58:58;11.40;99.90
22249;DHT22;67538;52.180;5.646;2023-04-29T07:01:25;11.50;99.90
22249;DHT22;67538;52.180;5.646;2023-04-29T07:03:53;11.60;99.90
22249;DHT22;67538;52.180;5.646;2023-04-29T07:06:20;11.80;99.90
22249;DHT22;67538;52.180;5.646;2023-04-29T07:08:47;11.80;99.90
22249;DHT22;67538;52.180;5.646;2023-04-29T07:11:14;12.00;99.90
22249;DHT22;67538;52.180;5.646;2023-04-29T07:13:41;12.10;99.90
22249;DHT22;67538;52.180;5.646;2023-04-29T07:16:14;12.40;99.90
22249;DHT22;67538;52.180;5.646;2023-04-29T07:18:41;12.80;99.90
22249;DHT22;67538;52.180;5.646;2023-04-29T07:21:10;13.20;99.90
22249;DHT22;67538;52.180;5.646;2023-04-29T07:23:37;13.90;99.90
22249;DHT22;67538;52.180;5.646;2023-04-29T07:26:09;15.60;99.90
22249;DHT22;67538;52.180;5.646;2023-04-29T07:28:36;16.90;99.90
22249;DHT22;67538;52.180;5.646;2023-04-29T07:31:03;16.40;99.90
22249;DHT22;67538;52.180;5.646;2023-04-29T07:33:30;16.00;99.90
22249;DHT22;67538;52.180;5.646;2023-04-29T07:35:57;15.40;99.90
22249;DHT22;67538;52.180;5.646;2023-04-29T07:38:26;14.70;99.90
22249;DHT22;67538;52.180;5.646;2023-04-29T07:40:53;14.30;99.90
22249;DHT22;67538;52.180;5.646;2023-04-29T07:43:20;14.30;99.90
22249;DHT22;67538;52.180;5.646;2023-04-29T07:45:47;14.40;99.90
22249;DHT22;67538;52.180;5.646;2023-04-29T07:48:14;14.40;99.90
22249;DHT22;67538;52.180;5.646;2023-04-29T07:50:41;14.40;99.90
22249;DHT22;67538;52.180;5.646;2023-04-29T07:53:08;14.30;99.90
22249;DHT22;67538;52.180;5.646;2023-04-29T07:55:37;14.00;99.90
22249;DHT22;67538;52.180;5.646;2023-04-29T07:58:04;13.70;99.90
22249;DHT22;67538;52.180;5.646;2023-04-29T08:00:31;13.50;99.90
22249;DHT22;67538;52.180;5.646;2023-04-29T08:02:59;13.70;99.90
22249;DHT22;67538;52.180;5.646;2023-04-29T08:05:26;13.80;99.90
22249;DHT22;67538;52.180;5.646;2023-04-29T08:07:55;13.70;99.90
22249;DHT22;67538;52.180;5.646;2023-04-29T08:10:22;13.90;99.90
22249;DHT22;67538;52.180;5.646;2023-04-29T08:12:50;14.00;99.90
22249;DHT22;67538;52.180;5.646;2023-04-29T08:15:17;14.10;99.90
22249;DHT22;67538;52.180;5.646;2023-04-29T08:17:44;14.30;99.90
22249;DHT22;67538;52.180;5.646;2023-04-29T08:20:12;14.70;99.90
22249;DHT22;67538;52.180;5.646;2023-04-29T08:22:39;15.50;99.90
22249;DHT22;67538;52.180;5.646;2023-04-29T08:25:08;16.20;99.90
22249;DHT22;67538;52.180;5.646;2023-04-29T08:27:35;16.40;99.90
22249;DHT22;67538;52.180;5.646;2023-04-29T08:30:04;16.40;99.90
22249;DHT22;67538;52.180;5.646;2023-04-29T08:32:32;16.10;99.90
22249;DHT22;67538;52.180;5.646;2023-04-29T08:34:59;16.00;99.90
22249;DHT22;67538;52.180;5.646;2023-04-29T08:37:26;15.80;99.90
22249;DHT22;67538;52.180;5.646;2023-04-29T08:39:53;15.70;99.90
22249;DHT22;67538;52.180;5.646;2023-04-29T08:42:31;15.60;99.90
22249;DHT22;67538;52.180;5.646;2023-04-29T08:44:59;15.30;99.90
22249;DHT22;67538;52.180;5.646;2023-04-29T08:47:29;15.00;99.90
22249;DHT22;67538;52.180;5.646;2023-04-29T08:50:02;14.80;99.90
22249;DHT22;67538;52.180;5.646;2023-04-29T08:52:30;15.00;99.90
22249;DHT22;67538;52.180;5.646;2023-04-29T08:54:57;15.60;99.90
22249;DHT22;67538;52.180;5.646;2023-04-29T08:57:28;15.90;99.90
22249;DHT22;67538;52.180;5.646;2023-04-29T08:59:56;15.80;99.90
22249;DHT22;67538;52.180;5.646;2023-04-29T09:02:25;15.80;99.90
22249;DHT22;67538;52.180;5.646;2023-04-29T09:04:59;15.70;99.90
22249;DHT22;67538;52.180;5.646;2023-04-29T09:07:30;15.50;99.90
22249;DHT22;67538;52.180;5.646;2023-04-29T09:09:58;15.40;99.90
22249;DHT22;67538;52.180;5.646;2023-04-29T09:12:26;15.10;99.90
22249;DHT22;67538;52.180;5.646;2023-04-29T09:14:55;14.80;99.90
22249;DHT22;67538;52.180;5.646;2023-04-29T09:17:38;14.60;99.90
22249;DHT22;67538;52.180;5.646;2023-04-29T09:20:25;14.60;99.90
22249;DHT22;67538;52.180;5.646;2023-04-29T09:22:54;14.60;99.90
22249;DHT22;67538;52.180;5.646;2023-04-29T09:25:21;14.60;99.90
22249;DHT22;67538;52.180;5.646;2023-04-29T09:27:49;14.60;99.90
22249;DHT22;67538;52.180;5.646;2023-04-29T09:30:16;15.00;99.90
22249;DHT22;67538;52.180;5.646;2023-04-29T09:32:44;15.60;99.90
22249;DHT22;67538;52.180;5.646;2023-04-29T09:35:23;15.40;99.90
22249;DHT22;67538;52.180;5.646;2023-04-29T09:37:50;15.30;99.90
22249;DHT22;67538;52.180;5.646;2023-04-29T09:40:28;15.00;99.90
22249;DHT22;67538;52.180;5.646;2023-04-29T09:42:56;14.80;99.90
22249;DHT22;67538;52.180;5.646;2023-04-29T09:45:36;14.60;99.90
22249;DHT22;67538;52.180;5.646;2023-04-29T09:48:04;15.00;99.90
22249;DHT22;67538;52.180;5.646;2023-04-29T09:50:34;15.00;99.90
22249;DHT22;67538;52.180;5.646;2023-04-29T09:53:03;14.80;99.90
22249;DHT22;67538;52.180;5.646;2023-04-29T09:55:30;14.70;99.90
22249;DHT22;67538;52.180;5.646;2023-04-29T09:57:57;14.50;99.90
22249;DHT22;67538;52.180;5.646;2023-04-29T10:00:29;14.30;99.90
22249;DHT22;67538;52.180;5.646;2023-04-29T10:02:58;14.20;99.90
22249;DHT22;67538;52.180;5.646;2023-04-29T10:05:27;14.10;99.90
22249;DHT22;67538;52.180;5.646;2023-04-29T10:07:57;14.20;99.90
22249;DHT22;67538;52.180;5.646;2023-04-29T10:10:26;14.30;99.90
22249;DHT22;67538;52.180;5.646;2023-04-29T10:12:54;14.40;99.90
22249;DHT22;67538;52.180;5.646;2023-04-29T10:15:27;14.70;99.90
22249;DHT22;67538;52.180;5.646;2023-04-29T10:17:58;15.10;99.90
22249;DHT22;67538;52.180;5.646;2023-04-29T10:20:26;15.20;99.90
22249;DHT22;67538;52.180;5.646;2023-04-29T10:22:54;15.30;99.90
22249;DHT22;67538;52.180;5.646;2023-04-29T10:25:25;15.70;99.90
22249;DHT22;67538;52.180;5.646;2023-04-29T10:27:54;16.10;99.90
22249;DHT22;67538;52.180;5.646;2023-04-29T10:30:22;15.90;99.90
22249;DHT22;67538;52.180;5.646;2023-04-29T10:32:50;15.70;99.90
22249;DHT22;67538;52.180;5.646;2023-04-29T10:35:18;15.50;99.90
22249;DHT22;67538;52.180;5.646;2023-04-29T10:37:47;15.40;99.90
22249;DHT22;67538;52.180;5.646;2023-04-29T10:40:16;15.20;99.90
22249;DHT22;67538;52.180;5.646;2023-04-29T10:42:48;15.00;99.90
22249;DHT22;67538;52.180;5.646;2023-04-29T10:45:23;15.10;99.90
22249;DHT22;67538;52.180;5.646;2023-04-29T10:48:10;15.60;99.90
22249;DHT22;67538;52.180;5.646;2023-04-29T10:51:00;16.00;99.90
22249;DHT22;67538;52.180;5.646;2023-04-29T10:53:28;16.30;99.90
22249;DHT22;67538;52.180;5.646;2023-04-29T10:56:03;16.30;99.90
22249;DHT22;67538;52.180;5.646;2023-04-29T10:58:40;16.20;99.90
22249;DHT22;67538;52.180;5.646;2023-04-29T11:01:09;16.00;99.90
22249;DHT22;67538;52.180;5.646;2023-04-29T11:03:55;15.70;99.90
22249;DHT22;67538;52.180;5.646;2023-04-29T11:06:25;15.50;99.90
22249;DHT22;67538;52.180;5.646;2023-04-29T11:08:59;15.80;99.90
22249;DHT22;67538;52.180;5.646;2023-04-29T11:14:29;15.70;99.90
22249;DHT22;67538;52.180;5.646;2023-04-29T11:16:58;15.50;99.90
22249;DHT22;67538;52.180;5.646;2023-04-29T11:19:30;15.40;99.90
22249;DHT22;67538;52.180;5.646;2023-04-29T11:22:12;15.20;99.90
22249;DHT22;67538;52.180;5.646;2023-04-29T11:24:52;15.10;99.90
22249;DHT22;67538;52.180;5.646;2023-04-29T11:27:21;15.10;99.90
22249;DHT22;67538;52.180;5.646;2023-04-29T11:29:52;15.30;99.90
22249;DHT22;67538;52.180;5.646;2023-04-29T11:32:23;15.90;99.90
22249;DHT22;67538;52.180;5.646;2023-04-29T11:34:51;16.20;99.90
22249;DHT22;67538;52.180;5.646;2023-04-29T11:37:23;16.30;99.90
22249;DHT22;67538;52.180;5.646;2023-04-29T11:39:50;16.10;99.90
22249;DHT22;67538;52.180;5.646;2023-04-29T11:42:21;16.00;99.90
22249;DHT22;67538;52.180;5.646;2023-04-29T11:44:53;16.00;99.90
22249;DHT22;67538;52.180;5.646;2023-04-29T11:47:25;16.20;99.90
22249;DHT22;67538;52.180;5.646;2023-04-29T11:49:52;16.50;99.90
22249;DHT22;67538;52.180;5.646;2023-04-29T11:52:19;16.70;99.90
22249;DHT22;67538;52.180;5.646;2023-04-29T11:54:46;16.80;99.90
22249;DHT22;67538;52.180;5.646;2023-04-29T11:57:13;16.80;99.90
22249;DHT22;67538;52.180;5.646;2023-04-29T11:59:41;16.90;99.90
22249;DHT22;67538;52.180;5.646;2023-04-29T12:02:12;16.80;99.90
22249;DHT22;67538;52.180;5.646;2023-04-29T12:04:45;16.50;99.90
22249;DHT22;67538;52.180;5.646;2023-04-29T12:07:14;16.30;99.90
22249;DHT22;67538;52.180;5.646;2023-04-29T12:09:42;16.30;99.90
22249;DHT22;67538;52.180;5.646;2023-04-29T12:12:10;16.50;99.90
22249;DHT22;67538;52.180;5.646;2023-04-29T12:14:37;16.90;99.90
22249;DHT22;67538;52.180;5.646;2023-04-29T12:17:04;17.20;99.90
22249;DHT22;67538;52.180;5.646;2023-04-29T12:19:33;17.30;99.90
22249;DHT22;67538;52.180;5.646;2023-04-29T12:22:02;17.10;99.90
22249;DHT22;67538;52.180;5.646;2023-04-29T12:24:33;17.20;99.90
22249;DHT22;67538;52.180;5.646;2023-04-29T12:27:00;17.20;99.90
22249;DHT22;67538;52.180;5.646;2023-04-29T12:29:27;17.50;99.90
22249;DHT22;67538;52.180;5.646;2023-04-29T12:31:55;17.70;99.90
22249;DHT22;67538;52.180;5.646;2023-04-29T12:34:25;17.70;99.90
22249;DHT22;67538;52.180;5.646;2023-04-29T12:36:55;17.60;99.90
22249;DHT22;67538;52.180;5.646;2023-04-29T12:39:23;17.30;99.90
22249;DHT22;67538;52.180;5.646;2023-04-29T12:41:54;17.00;99.90
22249;DHT22;67538;52.180;5.646;2023-04-29T12:44:22;16.80;99.90
22249;DHT22;67538;52.180;5.646;2023-04-29T12:46:50;16.70;99.90
22249;DHT22;67538;52.180;5.646;2023-04-29T12:49:18;17.00;99.90
22249;DHT22;67538;52.180;5.646;2023-04-29T12:51:46;17.40;99.90
22249;DHT22;67538;52.180;5.646;2023-04-29T12:54:14;17.60;99.90
22249;DHT22;67538;52.180;5.646;2023-04-29T12:56:41;17.60;99.90
22249;DHT22;67538;52.180;5.646;2023-04-29T12:59:09;17.50;99.90
22249;DHT22;67538;52.180;5.646;2023-04-29T13:01:37;17.50;99.90
22249;DHT22;67538;52.180;5.646;2023-04-29T13:04:04;17.40;99.90
22249;DHT22;67538;52.180;5.646;2023-04-29T13:06:33;17.20;99.90
22249;DHT22;67538;52.180;5.646;2023-04-29T13:09:04;17.30;99.90
22249;DHT22;67538;52.180;5.646;2023-04-29T13:11:33;17.50;99.90
22249;DHT22;67538;52.180;5.646;2023-04-29T13:14:00;17.80;99.90
22249;DHT22;67538;52.180;5.646;2023-04-29T13:16:27;18.00;99.90
22249;DHT22;67538;52.180;5.646;2023-04-29T13:18:54;18.00;99.90
22249;DHT22;67538;52.180;5.646;2023-04-29T13:21:21;17.90;99.90
22249;DHT22;67538;52.180;5.646;2023-04-29T13:23:48;17.70;99.90
22249;DHT22;67538;52.180;5.646;2023-04-29T13:26:16;17.80;99.90
22249;DHT22;67538;52.180;5.646;2023-04-29T13:28:45;17.90;99.90
22249;DHT22;67538;52.180;5.646;2023-04-29T13:31:12;17.90;99.90
22249;DHT22;67538;52.180;5.646;2023-04-29T13:33:39;17.80;99.90
22249;DHT22;67538;52.180;5.646;2023-04-29T13:36:06;18.00;99.90
22249;DHT22;67538;52.180;5.646;2023-04-29T13:38:34;18.20;99.90
22249;DHT22;67538;52.180;5.646;2023-04-29T13:41:01;18.40;99.90
22249;DHT22;67538;52.180;5.646;2023-04-29T13:43:28;18.30;99.90
22249;DHT22;67538;52.180;5.646;2023-04-29T13:45:56;18.00;99.90
22249;DHT22;67538;52.180;5.646;2023-04-29T13:48:24;17.70;99.90
22249;DHT22;67538;52.180;5.646;2023-04-29T13:50:51;17.70;99.90
22249;DHT22;67538;52.180;5.646;2023-04-29T13:53:18;17.70;99.90
22249;DHT22;67538;52.180;5.646;2023-04-29T13:55:45;17.70;99.90
22249;DHT22;67538;52.180;5.646;2023-04-29T13:58:12;17.90;99.90
22249;DHT22;67538;52.180;5.646;2023-04-29T14:00:39;18.00;99.90
22249;DHT22;67538;52.180;5.646;2023-04-29T14:03:08;18.20;99.90
22249;DHT22;67538;52.180;5.646;2023-04-29T14:05:35;18.10;99.90
22249;DHT22;67538;52.180;5.646;2023-04-29T14:08:02;17.80;99.90
22249;DHT22;67538;52.180;5.646;2023-04-29T14:10:29;17.60;99.90
22249;DHT22;67538;52.180;5.646;2023-04-29T14:12:56;17.50;99.90
22249;DHT22;67538;52.180;5.646;2023-04-29T14:15:23;17.50;99.90
22249;DHT22;67538;52.180;5.646;2023-04-29T14:17:50;17.50;99.90
22249;DHT22;67538;52.180;5.646;2023-04-29T14:20:19;17.50;99.90
22249;DHT22;67538;52.180;5.646;2023-04-29T14:22:46;17.50;99.90
22249;DHT22;67538;52.180;5.646;2023-04-29T14:25:13;17.40;99.90
22249;DHT22;67538;52.180;5.646;2023-04-29T14:27:40;17.50;99.90
22249;DHT22;67538;52.180;5.646;2023-04-29T14:30:08;17.60;99.90
22249;DHT22;67538;52.180;5.646;2023-04-29T14:32:36;17.70;99.90
22249;DHT22;67538;52.180;5.646;2023-04-29T14:35:03;17.70;99.90
22249;DHT22;67538;52.180;5.646;2023-04-29T14:37:32;17.80;99.90
22249;DHT22;67538;52.180;5.646;2023-04-29T14:39:59;17.90;99.90
22249;DHT22;67538;52.180;5.646;2023-04-29T14:42:26;17.80;99.90
22249;DHT22;67538;52.180;5.646;2023-04-29T14:44:53;17.80;99.90
22249;DHT22;67538;52.180;5.646;2023-04-29T14:47:20;17.70;99.90
22249;DHT22;67538;52.180;5.646;2023-04-29T14:49:47;17.60;99.90
22249;DHT22;67538;52.180;5.646;2023-04-29T14:52:14;17.60;99.90
22249;DHT22;67538;52.180;5.646;2023-04-29T14:54:43;17.50;99.90
22249;DHT22;67538;52.180;5.646;2023-04-29T14:57:10;17.60;99.90
22249;DHT22;67538;52.180;5.646;2023-04-29T14:59:37;17.50;99.90
22249;DHT22;67538;52.180;5.646;2023-04-29T15:02:04;17.60;99.90
22249;DHT22;67538;52.180;5.646;2023-04-29T15:04:31;17.50;99.90
22249;DHT22;67538;52.180;5.646;2023-04-29T15:06:58;17.50;99.90
22249;DHT22;67538;52.180;5.646;2023-04-29T15:09:25;17.50;99.90
22249;DHT22;67538;52.180;5.646;2023-04-29T15:11:54;17.40;99.90
22249;DHT22;67538;52.180;5.646;2023-04-29T15:14:21;17.30;99.90
22249;DHT22;67538;52.180;5.646;2023-04-29T15:16:48;17.40;99.90
22249;DHT22;67538;52.180;5.646;2023-04-29T15:19:15;17.40;99.90
22249;DHT22;67538;52.180;5.646;2023-04-29T15:21:43;17.40;99.90
22249;DHT22;67538;52.180;5.646;2023-04-29T15:24:10;17.50;99.90
22249;DHT22;67538;52.180;5.646;2023-04-29T15:26:37;17.60;99.90
22249;DHT22;67538;52.180;5.646;2023-04-29T15:29:05;17.60;99.90
22249;DHT22;67538;52.180;5.646;2023-04-29T15:31:32;17.40;99.90
22249;DHT22;67538;52.180;5.646;2023-04-29T15:33:59;17.30;99.90
22249;DHT22;67538;52.180;5.646;2023-04-29T15:36:27;17.20;99.90
22249;DHT22;67538;52.180;5.646;2023-04-29T15:38:55;17.10;99.90
22249;DHT22;67538;52.180;5.646;2023-04-29T15:41:23;17.10;99.90
22249;DHT22;67538;52.180;5.646;2023-04-29T15:43:51;17.00;99.90
22249;DHT22;67538;52.180;5.646;2023-04-29T15:46:20;17.00;99.90
22249;DHT22;67538;52.180;5.646;2023-04-29T15:48:47;17.10;99.90